createdAt,value
2022-11-15T00:01:48.562Z,100784.88
2022-11-15T00:04:34.210Z,100784.81
2022-11-15T00:07:48.416Z,100785.59
2022-11-15T00:10:28.459Z,100774.22
2022-11-15T00:13:14.381Z,100771.56
2022-11-15T00:16:02.209Z,100772.34
2022-11-15T00:18:50.552Z,100772.34
2022-11-15T00:21:36.624Z,100766.09
2022-11-15T00:24:22.478Z,100770.44
2022-11-15T00:27:09.663Z,100770.34
2022-11-15T00:29:55.497Z,100763.28
2022-11-15T00:32:42.162Z,100765.84
2022-11-15T00:35:28.144Z,100753.59
2022-11-15T00:38:13.573Z,100764.91
2022-11-15T00:40:59.354Z,100755.25
2022-11-15T00:43:46.143Z,100758.72
2022-11-15T00:46:31.698Z,100760.41
2022-11-15T00:49:17.503Z,100752.50
2022-11-15T00:52:03.512Z,100738.44
2022-11-15T00:54:48.877Z,100734.91
2022-11-15T00:57:34.565Z,100741.91
2022-11-15T01:00:20.222Z,100733.13
2022-11-15T01:03:05.716Z,100740.06
2022-11-15T01:05:51.274Z,100740.00
2022-11-15T01:08:37.162Z,100735.59
2022-11-15T01:11:22.798Z,100728.59
2022-11-15T01:14:08.482Z,100739.06
2022-11-15T01:16:56.417Z,100734.69
2022-11-15T01:19:42.099Z,100730.34
2022-11-15T01:22:27.885Z,100720.69
2022-11-15T01:25:13.669Z,100725.03
2022-11-15T01:27:59.308Z,100719.72
2022-11-15T01:30:44.917Z,100724.06
2022-11-15T01:33:32.110Z,100719.59
2022-11-15T01:36:25.269Z,100716.06
2022-11-15T01:39:10.767Z,100715.97
2022-11-15T01:41:56.835Z,100705.38
2022-11-15T01:44:52.877Z,100690.47
2022-11-15T01:47:51.616Z,100704.44
2022-11-15T01:50:37.434Z,100699.13
2022-11-15T01:53:25.926Z,100700.81
2022-11-15T01:56:19.005Z,100698.97
2022-11-15T01:59:09.099Z,100703.25
2022-11-15T02:01:54.927Z,100703.19
2022-11-15T02:04:48.308Z,100695.19
2022-11-15T02:07:36.536Z,100696.03
2022-11-15T02:10:25.363Z,100689.81
2022-11-15T02:13:11.351Z,100690.66
2022-11-15T02:16:05.843Z,100688.91
2022-11-15T02:19:10.295Z,100687.94
2022-11-15T02:22:33.129Z,100678.25
2022-11-15T02:25:47.334Z,100686.94
2022-11-15T02:29:06.043Z,100678.94
2022-11-15T02:32:21.676Z,100686.75
2022-11-15T02:35:59.446Z,100686.63
2022-11-15T02:39:01.613Z,100678.63
2022-11-15T02:41:58.878Z,100676.00
2022-11-15T02:44:47.520Z,100673.28
2022-11-15T02:47:42.246Z,100671.47
2022-11-15T02:50:32.826Z,100670.59
2022-11-15T02:53:26.094Z,100664.31
2022-11-15T02:56:13.305Z,100671.28
2022-11-15T02:59:19.316Z,100664.13
2022-11-15T03:02:35.064Z,100660.53
2022-11-15T03:06:04.462Z,100659.56
2022-11-15T03:09:05.757Z,100654.28
2022-11-15T03:12:22.678Z,100655.91
2022-11-15T03:15:22.893Z,100653.19
2022-11-15T03:18:31.035Z,100646.19
2022-11-15T03:21:21.304Z,100642.63
2022-11-15T03:24:09.514Z,100648.63
2022-11-15T03:27:00.034Z,100640.72
2022-11-15T03:29:53.723Z,100642.47
2022-11-15T03:33:01.016Z,100636.31
2022-11-15T03:35:48.873Z,100641.56
2022-11-15T03:38:36.579Z,100648.56
2022-11-15T03:42:17.457Z,100636.31
2022-11-15T03:45:21.141Z,100637.31
2022-11-15T03:48:17.237Z,100639.97
2022-11-15T03:51:05.122Z,100647.03
2022-11-15T03:53:51.386Z,100646.97
2022-11-15T03:56:40.170Z,100652.16
2022-11-15T03:59:25.924Z,100653.84
2022-11-15T04:02:14.657Z,100655.53
2022-11-15T04:05:00.195Z,100652.78
2022-11-15T04:07:45.978Z,100661.44
2022-11-15T04:10:32.226Z,100656.03
2022-11-15T04:13:17.758Z,100657.63
2022-11-15T04:16:04.847Z,100657.47
2022-11-15T04:19:11.329Z,100658.25
2022-11-15T04:22:15.303Z,100663.44
2022-11-15T04:25:00.915Z,100655.38
2022-11-15T04:27:46.547Z,100653.53
2022-11-15T04:30:32.314Z,100654.38
2022-11-15T04:33:17.856Z,100656.97
2022-11-15T04:36:22.478Z,100652.50
2022-11-15T04:39:09.025Z,100649.84
2022-11-15T04:41:54.701Z,100654.13
2022-11-15T04:44:41.445Z,100651.44
2022-11-15T04:47:28.683Z,100663.56
2022-11-15T04:50:15.782Z,100653.91
2022-11-15T04:53:01.505Z,100646.78
2022-11-15T04:55:47.911Z,100649.31
2022-11-15T04:58:33.561Z,100649.19
2022-11-15T05:01:19.410Z,100638.63
2022-11-15T05:04:20.026Z,100639.38
2022-11-15T05:07:05.726Z,100637.50
2022-11-15T05:09:51.311Z,100640.09
2022-11-15T05:12:37.062Z,100634.81
2022-11-15T05:15:24.638Z,100634.81
2022-11-15T05:18:10.453Z,100640.97
2022-11-15T05:20:55.886Z,100644.50
2022-11-15T05:23:42.484Z,100635.72
2022-11-15T05:26:28.169Z,100634.00
2022-11-15T05:29:13.631Z,100641.06
2022-11-15T05:31:59.309Z,100637.56
2022-11-15T05:34:46.181Z,100636.75
2022-11-15T05:37:32.102Z,100638.47
2022-11-15T05:40:20.066Z,100635.84
2022-11-15T05:43:06.771Z,100628.78
2022-11-15T05:45:52.801Z,100631.44
2022-11-15T05:48:42.978Z,100640.22
2022-11-15T05:51:30.285Z,100636.69
2022-11-15T05:54:18.551Z,100636.53
2022-11-15T05:57:06.116Z,100635.56
2022-11-15T05:59:52.678Z,100628.44
2022-11-15T06:02:38.405Z,100630.97
2022-11-15T06:05:24.112Z,100642.22
2022-11-15T06:08:09.914Z,100638.56
2022-11-15T06:10:55.874Z,100638.41
2022-11-15T06:13:41.414Z,100641.81
2022-11-15T06:16:27.065Z,100636.38
2022-11-15T06:19:13.987Z,100643.38
2022-11-15T06:22:01.126Z,100640.63
2022-11-15T06:24:47.818Z,100641.56
2022-11-15T06:27:33.379Z,100632.94
2022-11-15T06:30:19.678Z,100626.00
2022-11-15T06:33:06.558Z,100635.66
2022-11-15T06:35:52.682Z,100626.19
2022-11-15T06:38:38.582Z,100629.75
2022-11-15T06:41:24.250Z,100629.75
2022-11-15T06:44:10.139Z,100635.94
2022-11-15T06:46:56.498Z,100638.56
2022-11-15T06:49:42.131Z,100647.38
2022-11-15T06:52:53.127Z,100656.16
2022-11-15T06:55:38.789Z,100660.56
2022-11-15T06:58:24.571Z,100664.06
2022-11-15T07:01:13.136Z,100666.69
2022-11-15T07:03:58.870Z,100668.50
2022-11-15T07:06:48.760Z,100667.59
2022-11-15T07:09:34.250Z,100676.31
2022-11-15T07:12:19.862Z,100671.06
2022-11-15T07:15:06.651Z,100676.31
2022-11-15T07:17:52.911Z,100680.75
2022-11-15T07:20:38.532Z,100675.47
2022-11-15T07:23:25.150Z,100679.84
2022-11-15T07:26:10.760Z,100683.38
2022-11-15T07:28:56.439Z,100684.22
2022-11-15T07:31:42.127Z,100681.66
2022-11-15T07:34:32.945Z,100682.50
2022-11-15T07:37:18.661Z,100693.94
2022-11-15T07:40:07.362Z,100695.75
2022-11-15T07:42:56.889Z,100693.09
2022-11-15T07:45:44.882Z,100690.41
2022-11-15T07:48:42.637Z,100703.59
2022-11-15T07:51:29.515Z,100697.34
2022-11-15T07:54:15.288Z,100688.50
2022-11-15T07:57:06.662Z,100692.75
2022-11-15T07:59:53.897Z,100694.38
2022-11-15T08:02:39.478Z,100684.66
2022-11-15T08:05:25.146Z,100696.94
2022-11-15T08:08:12.089Z,100701.41
2022-11-15T08:11:01.271Z,100695.44
2022-11-15T08:13:47.975Z,100691.13
2022-11-15T08:16:33.830Z,100693.94
2022-11-15T08:19:19.518Z,100693.16
2022-11-15T08:22:05.355Z,100699.50
2022-11-15T08:24:50.989Z,100705.75
2022-11-15T08:27:36.645Z,100703.16
2022-11-15T08:30:23.017Z,100696.94
2022-11-15T08:33:13.607Z,100693.28
2022-11-15T08:36:01.352Z,100692.22
2022-11-15T08:38:46.822Z,100688.59
2022-11-15T08:41:37.753Z,100690.22
2022-11-15T08:44:25.011Z,100691.00
2022-11-15T08:47:13.698Z,100695.28
2022-11-15T08:49:59.354Z,100694.28
2022-11-15T08:52:45.881Z,100689.78
2022-11-15T08:55:31.165Z,100693.97
2022-11-15T08:58:17.043Z,100698.28
2022-11-15T09:01:04.128Z,100692.00
2022-11-15T09:03:50.069Z,100686.59
2022-11-15T09:06:39.669Z,100679.50
2022-11-15T09:09:27.969Z,100694.47
2022-11-15T09:12:13.874Z,100689.16
2022-11-15T09:15:04.213Z,100677.53
2022-11-15T09:17:50.106Z,100662.38
2022-11-15T09:20:35.847Z,100675.31
2022-11-15T09:23:21.909Z,100663.75
2022-11-15T09:26:08.176Z,100659.22
2022-11-15T09:28:54.073Z,100664.41
2022-11-15T09:31:39.609Z,100657.09
2022-11-15T09:34:25.257Z,100652.47
2022-11-15T09:37:13.289Z,100649.09
2022-11-15T09:39:59.923Z,100645.03
2022-11-15T09:42:57.722Z,100631.69
2022-11-15T09:46:08.039Z,100637.03
2022-11-15T09:49:05.619Z,100629.13
2022-11-15T09:51:55.991Z,100631.75
2022-11-15T09:54:55.855Z,100625.56
2022-11-15T09:57:46.708Z,100623.72
2022-11-15T10:00:45.404Z,100630.72
2022-11-15T10:03:19.025Z,100620.16
2022-11-15T10:05:52.862Z,100614.91
2022-11-15T10:08:48.380Z,100612.25
2022-11-15T10:11:38.179Z,100609.59
2022-11-15T10:14:19.662Z,100611.25
2022-11-15T10:17:15.122Z,100607.59
2022-11-15T10:20:22.830Z,100610.72
2022-11-15T10:22:59.646Z,100618.31
2022-11-15T10:25:30.062Z,100609.47
2022-11-15T10:28:18.786Z,100605.00
2022-11-15T10:30:56.349Z,100605.00
2022-11-15T10:33:40.293Z,100597.97
2022-11-15T10:36:10.578Z,100594.34
2022-11-15T10:38:50.184Z,100594.28
2022-11-15T10:41:31.130Z,100586.28
2022-11-15T10:44:15.625Z,100577.25
2022-11-15T10:46:48.079Z,100574.34
2022-11-15T10:49:29.453Z,100564.38
2022-11-15T10:52:14.726Z,100565.91
2022-11-15T10:54:51.530Z,100569.28
2022-11-15T10:57:27.573Z,100567.53
2022-11-15T11:00:00.144Z,100562.16
2022-11-15T11:02:36.126Z,100564.72
2022-11-15T11:05:25.617Z,100569.16
2022-11-15T11:08:11.188Z,100561.88
2022-11-15T11:10:51.552Z,100553.00
2022-11-15T11:13:30.173Z,100558.09
2022-11-15T11:16:32.854Z,100550.53
2022-11-15T11:19:29.524Z,100551.78
2022-11-15T11:22:13.145Z,100556.00
2022-11-15T11:24:48.869Z,100548.81
2022-11-15T11:28:10.402Z,100547.31
2022-11-15T11:30:49.196Z,100545.25
2022-11-15T11:33:33.457Z,100552.41
2022-11-15T11:36:12.971Z,100541.03
2022-11-15T11:39:01.805Z,100539.03
2022-11-15T11:41:37.360Z,100546.78
2022-11-15T11:44:25.674Z,100535.19
2022-11-15T11:47:12.341Z,100532.31
2022-11-15T11:49:51.720Z,100522.66
2022-11-15T11:52:30.914Z,100506.06
2022-11-15T11:55:22.882Z,100501.91
2022-11-15T11:58:43.934Z,100501.34
2022-11-15T12:01:43.856Z,100489.97
2022-11-15T12:04:41.485Z,100480.31
2022-11-15T12:07:24.397Z,100483.91
2022-11-15T12:10:03.329Z,100478.59
2022-11-15T12:13:00.965Z,100470.53
2022-11-15T12:15:40.824Z,100472.19
2022-11-15T12:18:15.276Z,100464.03
2022-11-15T12:21:15.348Z,100457.50
2022-11-15T12:23:59.570Z,100451.84
2022-11-15T12:26:46.410Z,100448.16
2022-11-15T12:29:25.921Z,100435.53
2022-11-15T12:31:57.893Z,100437.16
2022-11-15T12:34:28.931Z,100430.84
2022-11-15T12:36:56.694Z,100412.28
2022-11-15T12:40:19.327Z,100411.25
2022-11-15T12:43:01.738Z,100410.13
2022-11-15T12:45:37.822Z,100405.53
2022-11-15T12:48:17.696Z,100402.75
2022-11-15T12:50:59.373Z,100412.09
2022-11-15T12:53:26.448Z,100401.41
2022-11-15T12:56:05.243Z,100383.59
2022-11-15T12:58:49.467Z,100385.53
2022-11-15T13:01:32.211Z,100376.88
2022-11-15T13:04:21.134Z,100377.91
2022-11-15T13:07:08.407Z,100378.03
2022-11-15T13:09:38.510Z,100362.34
2022-11-15T13:12:27.954Z,100361.53
2022-11-15T13:15:00.449Z,100356.81
2022-11-15T13:17:54.740Z,100353.56
2022-11-15T13:20:29.256Z,100340.69
2022-11-15T13:23:05.365Z,100347.00
2022-11-15T13:26:17.388Z,100331.19
2022-11-15T13:28:52.866Z,100334.00
2022-11-15T13:31:41.345Z,100332.09
2022-11-15T13:34:51.091Z,100325.13
2022-11-15T13:37:22.404Z,100319.91
2022-11-15T13:39:50.655Z,100319.06
2022-11-15T13:42:24.324Z,100312.88
2022-11-15T13:45:04.016Z,100312.88
2022-11-15T13:47:32.713Z,100311.16
2022-11-15T13:50:09.628Z,100303.22
2022-11-15T13:52:44.299Z,100300.59
2022-11-15T13:55:22.902Z,100300.66
2022-11-15T13:57:58.028Z,100292.97
2022-11-15T14:00:45.029Z,100290.47
2022-11-15T14:03:23.066Z,100287.34
2022-11-15T14:06:13.231Z,100278.91
2022-11-15T14:09:16.892Z,100281.66
2022-11-15T14:11:55.757Z,100270.19
2022-11-15T14:14:26.156Z,100264.75
2022-11-15T14:16:58.817Z,100258.59
2022-11-15T14:19:25.713Z,100250.66
2022-11-15T14:22:23.036Z,100254.19
2022-11-15T14:25:13.951Z,100252.56
2022-11-15T14:27:43.848Z,100248.34
2022-11-15T14:30:17.728Z,100251.06
2022-11-15T14:32:50.415Z,100246.06
2022-11-15T14:35:23.973Z,100249.72
2022-11-15T14:37:51.306Z,100237.66
2022-11-15T14:40:22.673Z,100235.13
2022-11-15T14:42:51.737Z,100231.78
2022-11-15T14:45:23.372Z,100225.78
2022-11-15T14:47:50.457Z,100231.22
2022-11-15T14:50:21.529Z,100228.75
2022-11-15T14:52:50.101Z,100213.03
2022-11-15T14:55:37.195Z,100215.75
2022-11-15T14:58:08.746Z,100199.25
2022-11-15T15:00:42.070Z,100195.91
2022-11-15T15:03:10.266Z,100192.53
2022-11-15T15:05:43.873Z,100183.91
2022-11-15T15:08:11.593Z,100177.94
2022-11-15T15:10:46.180Z,100172.69
2022-11-15T15:13:25.178Z,100173.69
2022-11-15T15:15:53.275Z,100164.16
2022-11-15T15:18:21.367Z,100159.84
2022-11-15T15:21:08.110Z,100154.56
2022-11-15T15:23:36.585Z,100152.88
2022-11-15T15:26:03.973Z,100146.72
2022-11-15T15:28:34.547Z,100142.34
2022-11-15T15:31:03.094Z,100145.00
2022-11-15T15:33:30.395Z,100131.94
2022-11-15T15:35:57.496Z,100133.72
2022-11-15T15:38:24.711Z,100135.53
2022-11-15T15:40:51.978Z,100129.38
2022-11-15T15:43:19.337Z,100125.09
2022-11-15T15:45:46.518Z,100125.88
2022-11-15T15:48:16.163Z,100124.94
2022-11-15T15:50:44.389Z,100121.44
2022-11-15T15:53:13.910Z,100114.38
2022-11-15T15:55:41.214Z,100110.81
2022-11-15T15:58:09.400Z,100104.53
2022-11-15T16:00:37.800Z,100108.94
2022-11-15T16:03:07.119Z,100100.94
2022-11-15T16:05:34.303Z,100096.50
2022-11-15T16:08:01.386Z,100094.78
2022-11-15T16:10:37.866Z,100093.03
2022-11-15T16:13:05.098Z,100095.50
2022-11-15T16:15:32.974Z,100098.16
2022-11-15T16:18:02.738Z,100095.44
2022-11-15T16:20:51.017Z,100085.81
2022-11-15T16:23:21.101Z,100083.03
2022-11-15T16:25:52.747Z,100075.84
2022-11-15T16:28:33.797Z,100080.06
2022-11-15T16:31:10.353Z,100078.13
2022-11-15T16:33:38.427Z,100085.97
2022-11-15T16:36:16.071Z,100074.56
2022-11-15T16:38:42.989Z,100084.06
2022-11-15T16:41:10.031Z,100076.13
2022-11-15T16:43:37.228Z,100077.09
2022-11-15T16:46:25.438Z,100074.56
2022-11-15T16:48:54.326Z,100077.91
2022-11-15T16:51:23.044Z,100073.53
2022-11-15T16:53:50.412Z,100084.91
2022-11-15T16:56:36.144Z,100087.44
2022-11-15T16:59:03.385Z,100087.44
2022-11-15T17:01:46.752Z,100091.66
2022-11-15T17:04:14.054Z,100091.56
2022-11-15T17:06:43.417Z,100099.50
2022-11-15T17:09:20.569Z,100103.94
2022-11-15T17:11:47.595Z,100100.53
2022-11-15T17:14:15.252Z,100092.59
2022-11-15T17:16:44.372Z,100095.25
2022-11-15T17:19:17.368Z,100087.41
2022-11-15T17:21:46.023Z,100091.03
2022-11-15T17:24:14.350Z,100085.03
2022-11-15T17:26:42.946Z,100081.78
2022-11-15T17:29:10.100Z,100079.41
2022-11-15T17:31:38.397Z,100080.53
2022-11-15T17:34:06.873Z,100078.09
2022-11-15T17:36:34.735Z,100069.38
2022-11-15T17:39:02.466Z,100074.75
2022-11-15T17:41:30.000Z,100071.34
2022-11-15T17:43:59.816Z,100081.03
2022-11-15T17:46:28.438Z,100078.47
2022-11-15T17:48:57.353Z,100071.38
2022-11-15T17:51:24.753Z,100061.78
2022-11-15T17:53:52.999Z,100062.81
2022-11-15T17:56:27.301Z,100065.59
2022-11-15T17:58:56.543Z,100064.03
2022-11-15T18:01:31.282Z,100062.47
2022-11-15T18:04:02.216Z,100061.84
2022-11-15T18:06:34.743Z,100047.16
2022-11-15T18:09:03.954Z,100059.66
2022-11-15T18:11:39.280Z,100056.34
2022-11-15T18:14:12.618Z,100048.75
2022-11-15T18:16:40.526Z,100048.97
2022-11-15T18:19:13.053Z,100043.91
2022-11-15T18:21:56.330Z,100046.66
2022-11-15T18:24:26.762Z,100045.09
2022-11-15T18:26:53.875Z,100038.25
2022-11-15T18:29:21.571Z,100043.75
2022-11-15T18:31:50.554Z,100039.53
2022-11-15T18:34:18.683Z,100036.97
2022-11-15T18:36:46.465Z,100028.41
2022-11-15T18:39:16.399Z,100039.88
2022-11-15T18:41:46.529Z,100024.19
2022-11-15T18:44:14.714Z,100037.44
2022-11-15T18:46:44.177Z,100020.78
2022-11-15T18:49:14.155Z,100027.81
2022-11-15T18:51:44.150Z,100021.78
2022-11-15T18:54:15.477Z,100015.72
2022-11-15T18:56:46.928Z,100019.28
2022-11-15T18:59:17.210Z,100018.47
2022-11-15T19:01:50.001Z,100008.94
2022-11-15T19:04:20.155Z,100016.88
2022-11-15T19:06:50.322Z,100003.00
2022-11-15T19:09:19.799Z,100012.78
2022-11-15T19:11:51.609Z,100013.63
2022-11-15T19:14:19.508Z,100009.34
2022-11-15T19:16:50.360Z,100005.00
2022-11-15T19:19:21.496Z,100002.28
2022-11-15T19:21:49.003Z,99999.59
2022-11-15T19:24:16.159Z,100007.50
2022-11-15T19:26:43.785Z,100004.88
2022-11-15T19:29:11.432Z,100006.63
2022-11-15T19:31:39.096Z,100005.72
2022-11-15T19:34:06.984Z,100011.78
2022-11-15T19:36:45.057Z,100006.34
2022-11-15T19:39:14.307Z,99999.31
2022-11-15T19:41:44.208Z,100000.16
2022-11-15T19:44:13.456Z,99994.88
2022-11-15T19:46:41.365Z,99992.31
2022-11-15T19:49:10.779Z,99986.13
2022-11-15T19:51:41.579Z,99988.66
2022-11-15T19:54:10.358Z,99985.25
2022-11-15T19:56:39.786Z,99990.47
2022-11-15T19:59:07.680Z,99981.69
2022-11-15T20:01:38.885Z,99978.19
2022-11-15T20:04:07.937Z,99981.75
2022-11-15T20:06:40.486Z,99972.94
2022-11-15T20:09:16.689Z,99978.28
2022-11-15T20:11:44.197Z,99968.56
2022-11-15T20:14:12.889Z,99968.66
2022-11-15T20:16:40.287Z,99972.13
2022-11-15T20:19:08.711Z,99966.88
2022-11-15T20:21:36.147Z,99968.66
2022-11-15T20:24:05.169Z,99965.16
2022-11-15T20:26:32.386Z,99965.94
2022-11-15T20:29:01.112Z,99959.81
2022-11-15T20:31:30.037Z,99964.16
2022-11-15T20:33:57.757Z,99958.94
2022-11-15T20:36:25.026Z,99956.22
2022-11-15T20:38:58.189Z,99953.69
2022-11-15T20:41:26.930Z,99947.69
2022-11-15T20:43:53.961Z,99951.13
2022-11-15T20:46:21.146Z,99947.59
2022-11-15T20:48:48.194Z,99940.56
2022-11-15T20:51:17.814Z,99937.97
2022-11-15T20:53:46.304Z,99938.94
2022-11-15T20:56:17.195Z,99940.69
2022-11-15T20:58:45.802Z,99939.84
2022-11-15T21:01:15.542Z,99936.22
2022-11-15T21:03:44.005Z,99940.63
2022-11-15T21:06:11.952Z,99941.41
2022-11-15T21:08:57.720Z,99934.28
2022-11-15T21:11:43.927Z,99925.44
2022-11-15T21:14:11.242Z,99926.28
2022-11-15T21:16:38.976Z,99915.75
2022-11-15T21:19:07.015Z,99918.34
2022-11-15T21:21:36.321Z,99913.91
2022-11-15T21:24:09.178Z,99917.41
2022-11-15T21:26:37.157Z,99909.41
2022-11-15T21:29:05.666Z,99906.69
2022-11-15T21:31:33.075Z,99909.28
2022-11-15T21:34:04.120Z,99910.03
2022-11-15T21:36:31.207Z,99903.00
2022-11-15T21:38:58.386Z,99907.41
2022-11-15T21:41:25.622Z,99902.06
2022-11-15T21:43:52.634Z,99894.16
2022-11-15T21:46:19.662Z,99891.50
2022-11-15T21:48:46.696Z,99881.66
2022-11-15T21:51:13.762Z,99888.78
2022-11-15T21:53:40.887Z,99883.47
2022-11-15T21:56:08.699Z,99876.38
2022-11-15T21:58:36.115Z,99873.75
2022-11-15T22:01:22.558Z,99875.59
2022-11-15T22:03:50.248Z,99870.41
2022-11-15T22:06:18.453Z,99870.47
2022-11-15T22:08:46.581Z,99880.25
2022-11-15T22:11:15.103Z,99865.34
2022-11-15T22:13:42.764Z,99865.28
2022-11-15T22:16:11.107Z,99867.91
2022-11-15T22:18:39.026Z,99859.06
2022-11-15T22:21:11.702Z,99861.63
2022-11-15T22:23:40.152Z,99851.25
2022-11-15T22:26:10.081Z,99857.28
2022-11-15T22:28:37.246Z,99854.63
2022-11-15T22:31:04.801Z,99850.31
2022-11-15T22:33:34.249Z,99849.34
2022-11-15T22:36:02.122Z,99837.97
2022-11-15T22:38:29.902Z,99837.03
2022-11-15T22:40:57.748Z,99840.53
2022-11-15T22:43:27.368Z,99835.19
2022-11-15T22:45:57.276Z,99830.91
2022-11-15T22:48:28.672Z,99827.56
2022-11-15T22:50:57.434Z,99829.22
2022-11-15T22:53:25.448Z,99830.19
2022-11-15T22:56:04.647Z,99828.44
2022-11-15T22:58:33.497Z,99831.91
2022-11-15T23:01:04.316Z,99824.88
2022-11-15T23:03:33.221Z,99823.94
2022-11-15T23:06:07.227Z,99812.50
2022-11-15T23:08:36.559Z,99824.00
2022-11-15T23:11:23.733Z,99810.75
2022-11-15T23:13:52.400Z,99808.16
2022-11-15T23:16:24.067Z,99805.53
2022-11-15T23:18:57.914Z,99809.09
2022-11-15T23:21:49.226Z,99809.09
2022-11-15T23:24:17.781Z,99802.06
2022-11-15T23:26:48.162Z,99794.97
2022-11-15T23:29:18.165Z,99793.28
2022-11-15T23:32:04.557Z,99801.13
2022-11-15T23:34:35.394Z,99792.28
2022-11-15T23:37:06.939Z,99798.50
2022-11-15T23:39:34.010Z,99798.50
2022-11-15T23:42:07.499Z,99796.69
2022-11-15T23:44:37.240Z,99785.31
2022-11-15T23:47:04.326Z,99791.50
2022-11-15T23:49:31.561Z,99791.50
2022-11-15T23:51:58.622Z,99785.34
2022-11-15T23:54:25.649Z,99787.00
2022-11-15T23:56:52.603Z,99780.03
2022-11-15T23:59:19.574Z,99786.06
